createdAt,value
2017-12-11T00:00:37.134Z,7.30
2017-12-11T00:01:37.121Z,6.50
2017-12-11T00:02:37.109Z,6.70
2017-12-11T00:03:37.101Z,6.70
2017-12-11T00:04:37.084Z,7.40
2017-12-11T00:05:37.074Z,7.50
2017-12-11T00:06:37.062Z,8.20
2017-12-11T00:07:37.050Z,8.30
2017-12-11T00:08:37.037Z,8.70
2017-12-11T00:09:37.024Z,8.90
2017-12-11T00:10:37.011Z,9.30
2017-12-11T00:11:37.002Z,9.00
2017-12-11T00:12:36.994Z,8.00
2017-12-11T00:13:36.977Z,8.30
2017-12-11T00:14:36.963Z,8.20
2017-12-11T00:15:36.953Z,7.90
2017-12-11T00:16:36.939Z,7.80
2017-12-11T00:17:36.936Z,8.40
2017-12-11T00:18:36.916Z,8.00
2017-12-11T00:19:36.902Z,7.30
2017-12-11T00:20:36.896Z,7.60
2017-12-11T00:21:36.879Z,7.80
2017-12-11T00:22:36.870Z,7.60
2017-12-11T00:23:36.853Z,7.50
2017-12-11T00:24:36.841Z,7.60
2017-12-11T00:25:36.836Z,8.60
2017-12-11T00:26:36.818Z,8.50
2017-12-11T00:27:36.805Z,8.30
2017-12-11T00:28:36.802Z,8.60
2017-12-11T00:29:36.823Z,8.90
2017-12-11T00:30:36.768Z,8.80
2017-12-11T00:31:36.760Z,9.50
2017-12-11T00:32:36.750Z,8.60
2017-12-11T00:33:36.737Z,8.40
2017-12-11T00:34:36.719Z,8.00
2017-12-11T00:35:36.707Z,8.00
2017-12-11T00:36:36.699Z,8.30
2017-12-11T00:37:36.682Z,7.60
2017-12-11T00:38:36.669Z,7.50
2017-12-11T00:39:36.663Z,7.40
2017-12-11T00:40:36.651Z,6.70
2017-12-11T00:41:36.638Z,7.10
2017-12-11T00:42:36.620Z,7.60
2017-12-11T00:43:36.607Z,8.40
2017-12-11T00:44:36.598Z,8.30
2017-12-11T00:45:36.583Z,8.20
2017-12-11T00:46:36.572Z,8.90
2017-12-11T00:47:36.558Z,8.90
2017-12-11T00:48:36.550Z,10.00
2017-12-11T00:49:36.541Z,10.00
2017-12-11T00:50:36.527Z,9.90
2017-12-11T00:51:36.509Z,11.20
2017-12-11T00:52:36.499Z,12.50
2017-12-11T00:53:36.485Z,12.10
2017-12-11T00:54:36.483Z,12.60
2017-12-11T00:55:36.459Z,14.10
2017-12-11T00:56:36.456Z,13.00
2017-12-11T00:57:36.442Z,12.40
2017-12-11T00:58:36.423Z,10.90
2017-12-11T00:59:36.415Z,11.00
2017-12-11T01:00:36.404Z,13.00
2017-12-11T01:01:36.388Z,13.80
2017-12-11T01:02:36.379Z,12.00
2017-12-11T01:03:36.360Z,10.90
2017-12-11T01:04:36.350Z,11.50
2017-12-11T01:05:36.337Z,11.70
2017-12-11T01:06:36.324Z,11.90
2017-12-11T01:07:36.312Z,11.10
2017-12-11T01:08:36.299Z,10.00
2017-12-11T01:09:36.290Z,11.50
2017-12-11T01:10:36.278Z,11.00
2017-12-11T01:11:36.266Z,11.10
2017-12-11T01:12:36.249Z,10.50
2017-12-11T01:13:36.239Z,9.80
2017-12-11T01:14:36.225Z,11.60
2017-12-11T01:15:36.212Z,11.10
2017-12-11T01:16:36.202Z,10.80
2017-12-11T01:17:36.190Z,11.40
2017-12-11T01:18:36.174Z,11.60
2017-12-11T01:19:36.167Z,11.40
2017-12-11T01:20:36.151Z,11.40
2017-12-11T01:21:36.137Z,11.00
2017-12-11T01:22:36.124Z,10.50
2017-12-11T01:23:36.112Z,11.50
2017-12-11T01:24:36.106Z,11.30
2017-12-11T01:25:36.096Z,11.20
2017-12-11T01:26:36.076Z,12.30
2017-12-11T01:27:36.064Z,12.10
2017-12-11T01:28:36.051Z,12.80
2017-12-11T01:29:36.040Z,11.90
2017-12-11T01:30:36.026Z,12.50
2017-12-11T01:31:36.017Z,12.30
2017-12-11T01:32:36.004Z,12.20
2017-12-11T01:33:35.994Z,10.40
2017-12-11T01:34:35.978Z,11.40
2017-12-11T01:35:35.967Z,10.90
2017-12-11T01:36:35.954Z,11.60
2017-12-11T01:37:35.945Z,12.30
2017-12-11T01:38:35.928Z,12.80
2017-12-11T01:39:35.916Z,12.90
2017-12-11T01:40:35.909Z,12.50
2017-12-11T01:41:35.897Z,13.70
2017-12-11T01:42:35.880Z,12.80
2017-12-11T01:43:35.876Z,12.80
2017-12-11T01:44:35.856Z,11.70
2017-12-11T01:45:35.844Z,13.00
2017-12-11T01:46:35.830Z,11.80
2017-12-11T01:47:35.819Z,10.60
2017-12-11T01:48:35.812Z,11.30
2017-12-11T01:49:35.794Z,12.20
2017-12-11T01:50:35.780Z,11.20
2017-12-11T01:51:35.775Z,11.50
2017-12-11T01:52:35.755Z,12.10
2017-12-11T01:53:35.750Z,11.50
2017-12-11T01:54:35.732Z,12.00
2017-12-11T01:55:35.720Z,12.30
2017-12-11T01:56:35.706Z,12.50
2017-12-11T01:57:35.694Z,12.30
2017-12-11T01:58:35.684Z,12.30
2017-12-11T01:59:35.671Z,13.50
2017-12-11T02:00:35.658Z,13.40
2017-12-11T02:01:35.648Z,13.60
2017-12-11T02:02:35.636Z,14.00
2017-12-11T02:03:35.620Z,14.00
2017-12-11T02:04:35.609Z,14.20
2017-12-11T02:05:35.598Z,14.80
2017-12-11T02:06:35.589Z,13.60
2017-12-11T02:07:35.574Z,13.00
2017-12-11T02:08:35.558Z,13.00
2017-12-11T02:09:35.547Z,13.50
2017-12-11T02:10:35.540Z,13.80
2017-12-11T02:11:35.523Z,14.40
2017-12-11T02:12:35.509Z,14.30
2017-12-11T02:13:35.504Z,14.20
2017-12-11T02:14:35.484Z,13.20
2017-12-11T02:15:35.478Z,14.00
2017-12-11T02:16:35.460Z,14.30
2017-12-11T02:17:35.447Z,15.10
2017-12-11T02:18:35.436Z,15.10
2017-12-11T02:19:35.422Z,14.20
2017-12-11T02:20:35.415Z,13.70
2017-12-11T02:21:35.396Z,12.70
2017-12-11T02:22:35.389Z,13.30
2017-12-11T02:23:35.371Z,13.00
2017-12-11T02:24:35.366Z,11.80
2017-12-11T02:25:35.346Z,13.80
2017-12-11T02:26:35.340Z,13.10
2017-12-11T02:27:35.324Z,15.20
2017-12-11T02:28:35.308Z,13.70
2017-12-11T02:29:35.297Z,14.20
2017-12-11T02:30:35.286Z,14.90
2017-12-11T02:31:35.270Z,13.20
2017-12-11T02:32:35.260Z,14.30
2017-12-11T02:33:35.252Z,14.10
2017-12-11T02:34:35.234Z,13.60
2017-12-11T02:35:35.224Z,13.10
2017-12-11T02:36:35.209Z,14.00
2017-12-11T02:37:35.196Z,14.10
2017-12-11T02:38:35.193Z,13.00
2017-12-11T02:39:35.172Z,14.10
2017-12-11T02:40:35.158Z,13.50
2017-12-11T02:41:35.147Z,12.60
2017-12-11T02:42:35.134Z,12.60
2017-12-11T02:43:35.127Z,12.40
2017-12-11T02:44:35.109Z,12.30
2017-12-11T02:45:35.095Z,12.40
2017-12-11T02:46:35.088Z,13.40
2017-12-11T02:47:35.070Z,12.90
2017-12-11T02:48:35.059Z,13.70
2017-12-11T02:49:35.061Z,11.70
2017-12-11T02:50:35.032Z,11.50
2017-12-11T02:51:35.019Z,11.80
2017-12-11T02:52:35.019Z,11.20
2017-12-11T02:53:35.000Z,10.80
2017-12-11T02:54:34.981Z,11.00
2017-12-11T02:55:34.969Z,11.00
2017-12-11T02:56:34.957Z,10.90
2017-12-11T02:57:34.947Z,10.50
2017-12-11T02:58:34.938Z,11.70
2017-12-11T02:59:34.924Z,11.50
2017-12-11T03:00:34.912Z,11.70
2017-12-11T03:01:34.901Z,10.90
2017-12-11T03:02:34.887Z,11.00
2017-12-11T03:03:34.868Z,10.10
2017-12-11T03:04:34.861Z,10.90
2017-12-11T03:05:34.854Z,9.80
2017-12-11T03:06:34.832Z,10.40
2017-12-11T03:07:34.820Z,9.30
2017-12-11T03:08:34.806Z,10.10
2017-12-11T03:09:34.794Z,9.10
2017-12-11T03:10:34.781Z,10.00
2017-12-11T03:11:34.771Z,9.20
2017-12-11T03:12:34.763Z,10.20
2017-12-11T03:13:34.750Z,10.00
2017-12-11T03:14:34.735Z,9.90
2017-12-11T03:15:34.719Z,9.40
2017-12-11T03:16:34.704Z,9.20
2017-12-11T03:17:34.693Z,9.20
2017-12-11T03:18:34.681Z,8.10
2017-12-11T03:19:34.669Z,8.90
2017-12-11T03:20:34.661Z,8.60
2017-12-11T03:21:34.648Z,8.80
2017-12-11T03:22:34.629Z,9.00
2017-12-11T03:23:34.628Z,8.00
2017-12-11T03:24:34.610Z,8.00
2017-12-11T03:25:34.594Z,8.10
2017-12-11T03:26:34.580Z,7.40
2017-12-11T03:27:34.569Z,8.20
2017-12-11T03:28:34.554Z,7.50
2017-12-11T03:29:34.549Z,8.10
2017-12-11T03:30:34.530Z,7.60
2017-12-11T03:31:34.519Z,7.30
2017-12-11T03:32:34.505Z,8.30
2017-12-11T03:33:34.495Z,7.50
2017-12-11T03:34:34.486Z,8.00
2017-12-11T03:35:34.467Z,8.40
2017-12-11T03:36:34.457Z,8.10
2017-12-11T03:37:34.445Z,9.10
2017-12-11T03:38:34.437Z,8.50
2017-12-11T03:39:34.419Z,8.50
2017-12-11T03:40:34.407Z,8.40
2017-12-11T03:41:34.397Z,9.00
2017-12-11T03:42:34.381Z,9.50
2017-12-11T03:43:34.376Z,9.90
2017-12-11T03:44:34.357Z,9.50
2017-12-11T03:45:34.346Z,8.90
2017-12-11T03:46:34.334Z,10.20
2017-12-11T03:47:34.323Z,8.30
2017-12-11T03:48:34.308Z,8.70
2017-12-11T03:49:34.298Z,9.70
2017-12-11T03:50:34.286Z,8.60
2017-12-11T03:51:34.278Z,10.10
2017-12-11T03:52:34.271Z,9.90
2017-12-11T03:53:34.249Z,10.80
2017-12-11T03:54:34.235Z,10.30
2017-12-11T03:55:34.229Z,10.30
2017-12-11T03:56:34.217Z,11.70
2017-12-11T03:57:34.201Z,9.90
2017-12-11T03:58:34.188Z,10.50
2017-12-11T03:59:34.180Z,10.40
2017-12-11T04:00:34.163Z,9.30
2017-12-11T04:01:34.152Z,10.90
2017-12-11T04:02:34.138Z,10.90
2017-12-11T04:03:34.126Z,9.70
2017-12-11T04:04:34.114Z,9.50
2017-12-11T04:05:34.103Z,9.50
2017-12-11T04:06:34.089Z,9.30
2017-12-11T04:07:34.084Z,9.40
2017-12-11T04:08:34.072Z,11.00
2017-12-11T04:09:34.054Z,10.20
2017-12-11T04:10:34.046Z,10.20
2017-12-11T04:11:34.028Z,9.10
2017-12-11T04:12:34.021Z,10.80
2017-12-11T04:13:34.025Z,12.70
2017-12-11T04:14:33.991Z,12.60
2017-12-11T04:15:33.980Z,11.80
2017-12-11T04:16:33.966Z,12.00
2017-12-11T04:17:33.960Z,10.60
2017-12-11T04:18:33.942Z,10.90
2017-12-11T04:19:33.935Z,10.90
2017-12-11T04:20:33.930Z,10.10
2017-12-11T04:21:33.909Z,10.10
2017-12-11T04:22:33.897Z,10.90
2017-12-11T04:23:33.886Z,9.70
2017-12-11T04:24:33.868Z,9.80
2017-12-11T04:25:33.856Z,9.60
2017-12-11T04:26:33.844Z,9.20
2017-12-11T04:27:33.837Z,9.70
2017-12-11T04:28:33.819Z,10.10
2017-12-11T04:29:33.808Z,9.70
2017-12-11T04:30:33.800Z,10.40
2017-12-11T04:31:33.783Z,10.00
2017-12-11T04:32:33.770Z,9.90
2017-12-11T04:33:33.758Z,9.00
2017-12-11T04:34:33.744Z,9.90
2017-12-11T04:35:33.736Z,9.70
2017-12-11T04:36:33.720Z,9.80
2017-12-11T04:37:33.710Z,9.40
2017-12-11T04:38:33.697Z,9.70
2017-12-11T04:39:33.689Z,11.00
2017-12-11T04:40:33.671Z,12.10
2017-12-11T04:41:33.663Z,10.80
2017-12-11T04:42:33.650Z,11.40
2017-12-11T04:43:33.636Z,11.60
2017-12-11T04:44:33.623Z,11.10
2017-12-11T04:45:33.611Z,10.30
2017-12-11T04:46:33.599Z,11.40
2017-12-11T04:47:33.589Z,10.20
2017-12-11T04:48:33.575Z,10.20
2017-12-11T04:49:33.563Z,9.70
2017-12-11T04:50:33.556Z,9.70
2017-12-11T04:51:33.539Z,10.10
2017-12-11T04:52:33.526Z,10.30
2017-12-11T04:53:33.516Z,10.30
2017-12-11T04:54:33.502Z,10.30
2017-12-11T04:55:33.490Z,10.70
2017-12-11T04:56:33.481Z,9.70
2017-12-11T04:57:33.465Z,9.80
2017-12-11T04:58:33.451Z,10.30
2017-12-11T04:59:33.442Z,9.60
2017-12-11T05:00:33.434Z,11.50
2017-12-11T05:01:33.417Z,10.50
2017-12-11T05:02:33.403Z,10.40
2017-12-11T05:03:33.392Z,10.30
2017-12-11T05:04:33.378Z,10.20
2017-12-11T05:05:33.369Z,10.10
2017-12-11T05:06:33.353Z,10.50
2017-12-11T05:07:33.347Z,9.10
2017-12-11T05:08:33.334Z,10.00
2017-12-11T05:09:33.320Z,10.00
2017-12-11T05:10:33.304Z,10.20
2017-12-11T05:11:33.302Z,9.80
2017-12-11T05:12:33.281Z,10.60
2017-12-11T05:13:33.287Z,11.10
2017-12-11T05:14:33.257Z,10.60
2017-12-11T05:15:33.246Z,11.20
2017-12-11T05:16:33.234Z,11.30
2017-12-11T05:17:33.229Z,9.60
2017-12-11T05:18:33.208Z,9.90
2017-12-11T05:19:33.196Z,9.90
2017-12-11T05:20:33.195Z,10.40
2017-12-11T05:21:33.172Z,10.70
2017-12-11T05:22:33.160Z,11.30
2017-12-11T05:23:33.150Z,10.90
2017-12-11T05:24:33.136Z,10.10
2017-12-11T05:25:33.123Z,10.00
2017-12-11T05:26:33.111Z,11.40
2017-12-11T05:27:33.103Z,11.30
2017-12-11T05:28:33.094Z,10.70
2017-12-11T05:29:33.075Z,10.30
2017-12-11T05:30:33.065Z,10.90
2017-12-11T05:31:33.060Z,11.50
2017-12-11T05:32:33.042Z,11.50
2017-12-11T05:33:33.030Z,11.30
2017-12-11T05:34:33.035Z,10.90
2017-12-11T05:35:33.006Z,10.70
2017-12-11T05:36:33.011Z,10.90
2017-12-11T05:37:32.980Z,11.10
2017-12-11T05:38:32.968Z,12.10
2017-12-11T05:39:32.965Z,10.30
2017-12-11T05:40:32.942Z,11.60
2017-12-11T05:41:32.937Z,13.30
2017-12-11T05:42:32.918Z,12.10
2017-12-11T05:43:32.908Z,12.50
2017-12-11T05:44:32.893Z,12.40
2017-12-11T05:45:32.888Z,12.60
2017-12-11T05:46:32.872Z,12.40
2017-12-11T05:47:32.858Z,12.90
2017-12-11T05:48:32.855Z,13.50
2017-12-11T05:49:32.832Z,12.30
2017-12-11T05:50:32.821Z,10.60
2017-12-11T05:51:32.843Z,11.40
2017-12-11T05:52:32.796Z,12.50
2017-12-11T05:53:32.784Z,11.40
2017-12-11T05:54:32.771Z,11.70
2017-12-11T05:55:32.764Z,11.30
2017-12-11T05:56:32.752Z,11.60
2017-12-11T05:57:32.744Z,12.30
2017-12-11T05:58:32.731Z,10.80
2017-12-11T05:59:32.718Z,10.80
2017-12-11T06:00:32.704Z,11.10
2017-12-11T06:01:32.693Z,9.80
2017-12-11T06:02:32.677Z,7.60
2017-12-11T06:03:32.665Z,7.80
2017-12-11T06:04:32.657Z,7.40
2017-12-11T06:05:32.640Z,7.60
2017-12-11T06:06:32.628Z,7.00
2017-12-11T06:07:32.620Z,6.70
2017-12-11T06:08:32.604Z,5.70
2017-12-11T06:09:32.591Z,7.30
2017-12-11T06:10:32.580Z,9.20
2017-12-11T06:11:32.567Z,7.50
2017-12-11T06:12:32.554Z,6.60
2017-12-11T06:13:32.543Z,9.30
2017-12-11T06:14:32.529Z,11.10
2017-12-11T06:15:32.518Z,11.50
2017-12-11T06:16:32.516Z,12.00
2017-12-11T06:17:32.499Z,11.30
2017-12-11T06:18:32.490Z,10.30
2017-12-11T06:19:32.473Z,10.70
2017-12-11T06:20:32.461Z,9.10
2017-12-11T06:21:32.447Z,6.60
2017-12-11T06:22:32.432Z,6.10
2017-12-11T06:23:32.423Z,6.10
2017-12-11T06:24:32.410Z,5.90
2017-12-11T06:25:32.397Z,6.80
2017-12-11T06:26:32.390Z,7.10
2017-12-11T06:27:32.374Z,9.70
2017-12-11T06:28:32.369Z,8.40
2017-12-11T06:29:32.355Z,6.80
2017-12-11T06:30:32.336Z,7.80
2017-12-11T06:31:32.324Z,9.90
2017-12-11T06:32:32.310Z,10.70
2017-12-11T06:33:32.298Z,8.50
2017-12-11T06:34:32.286Z,10.50
2017-12-11T06:35:32.274Z,9.90
2017-12-11T06:36:32.267Z,11.40
2017-12-11T06:37:32.249Z,12.10
2017-12-11T06:38:32.237Z,11.90
2017-12-11T06:39:32.226Z,12.00
2017-12-11T06:40:32.220Z,11.90
2017-12-11T06:41:32.202Z,13.50
2017-12-11T06:42:32.190Z,16.10
2017-12-11T06:43:32.178Z,15.20
2017-12-11T06:44:32.170Z,17.60
2017-12-11T06:45:32.153Z,17.80
2017-12-11T06:46:32.145Z,17.60
2017-12-11T06:47:32.135Z,18.80
2017-12-11T06:48:32.114Z,29.40
2017-12-11T06:49:32.104Z,32.30
2017-12-11T06:50:32.097Z,26.50
2017-12-11T06:51:32.079Z,20.10
2017-12-11T06:52:32.066Z,16.00
2017-12-11T06:53:32.056Z,16.70
2017-12-11T06:54:32.042Z,17.70
2017-12-11T06:55:32.030Z,17.20
2017-12-11T06:56:32.018Z,20.60
2017-12-11T06:57:32.012Z,21.50
2017-12-11T06:58:31.993Z,22.90
2017-12-11T06:59:31.986Z,23.20
2017-12-11T07:00:31.969Z,20.20
2017-12-11T07:01:31.956Z,20.60
2017-12-11T07:02:31.942Z,18.40
2017-12-11T07:03:31.934Z,18.40
2017-12-11T07:04:31.925Z,19.50
2017-12-11T07:05:31.907Z,19.80
2017-12-11T07:06:31.893Z,18.60
2017-12-11T07:07:31.882Z,17.80
2017-12-11T07:08:31.869Z,18.00
2017-12-11T07:09:31.869Z,17.30
2017-12-11T07:10:31.844Z,15.00
2017-12-11T07:11:31.837Z,24.50
2017-12-11T07:12:31.821Z,15.80
2017-12-11T07:13:31.806Z,9.30
2017-12-11T07:14:31.795Z,9.70
2017-12-11T07:15:31.782Z,9.20
2017-12-11T07:16:31.771Z,9.10
2017-12-11T07:17:31.759Z,9.10
2017-12-11T07:18:31.743Z,8.00
2017-12-11T07:19:31.732Z,7.70
2017-12-11T07:20:31.720Z,7.70
2017-12-11T07:21:31.710Z,7.20
2017-12-11T07:22:31.703Z,6.40
2017-12-11T07:23:31.693Z,6.10
2017-12-11T07:24:31.671Z,6.20
2017-12-11T07:25:31.659Z,5.80
2017-12-11T07:26:31.647Z,5.80
2017-12-11T07:27:31.637Z,5.90
2017-12-11T07:28:31.628Z,5.90
2017-12-11T07:29:31.609Z,6.40
2017-12-11T07:30:31.594Z,6.80
2017-12-11T07:31:31.583Z,7.10
2017-12-11T07:32:31.570Z,7.80
2017-12-11T07:33:31.558Z,10.60
2017-12-11T07:34:31.547Z,11.20
2017-12-11T07:35:31.532Z,10.60
2017-12-11T07:36:31.520Z,10.20
2017-12-11T07:37:31.509Z,10.50
2017-12-11T07:38:31.495Z,12.00
2017-12-11T07:39:31.490Z,10.30
2017-12-11T07:40:31.471Z,12.30
2017-12-11T07:41:31.460Z,12.60
2017-12-11T07:42:31.445Z,13.80
2017-12-11T07:43:31.434Z,12.50
2017-12-11T07:44:31.427Z,12.70
2017-12-11T07:45:31.410Z,14.30
2017-12-11T07:46:31.405Z,14.10
2017-12-11T07:47:31.384Z,13.30
2017-12-11T07:48:31.370Z,14.70
2017-12-11T07:49:31.360Z,15.30
2017-12-11T07:50:31.350Z,15.00
2017-12-11T07:51:31.341Z,15.00
2017-12-11T07:52:31.327Z,14.40
2017-12-11T07:53:31.311Z,15.00
2017-12-11T07:54:31.298Z,14.60
2017-12-11T07:55:31.282Z,13.80
2017-12-11T07:56:31.277Z,14.90
2017-12-11T07:57:31.260Z,14.80
2017-12-11T07:58:31.245Z,14.90
2017-12-11T07:59:31.239Z,13.00
2017-12-11T08:00:31.223Z,13.90
2017-12-11T08:01:31.211Z,15.20
2017-12-11T08:02:31.200Z,15.00
2017-12-11T08:03:31.196Z,15.20
2017-12-11T08:04:31.172Z,15.10
2017-12-11T08:05:31.163Z,15.10
2017-12-11T08:06:31.148Z,21.20
2017-12-11T08:07:31.141Z,18.00
2017-12-11T08:08:31.129Z,17.80
2017-12-11T08:09:31.115Z,16.70
2017-12-11T08:10:31.098Z,16.40
2017-12-11T08:11:31.088Z,17.40
2017-12-11T08:12:31.074Z,37.40
2017-12-11T08:13:31.061Z,37.40
2017-12-11T08:14:31.051Z,32.30
2017-12-11T08:15:31.039Z,21.50
2017-12-11T08:16:31.033Z,18.50
2017-12-11T08:17:31.015Z,17.60
2017-12-11T08:18:31.003Z,17.70
2017-12-11T08:19:30.995Z,17.10
2017-12-11T08:20:30.980Z,16.30
2017-12-11T08:21:30.979Z,16.70
2017-12-11T08:22:30.960Z,17.20
2017-12-11T08:23:30.942Z,16.20
2017-12-11T08:24:30.929Z,20.10
2017-12-11T08:25:30.925Z,18.10
2017-12-11T08:26:30.905Z,17.40
2017-12-11T08:27:30.900Z,16.60
2017-12-11T08:28:30.885Z,16.00
2017-12-11T08:29:30.867Z,16.50
2017-12-11T08:30:30.855Z,17.00
2017-12-11T08:31:30.849Z,15.70
2017-12-11T08:32:30.831Z,15.40
2017-12-11T08:33:30.826Z,14.80
2017-12-11T08:34:30.808Z,16.20
2017-12-11T08:35:30.793Z,15.80
2017-12-11T08:36:30.781Z,16.00
2017-12-11T08:37:30.769Z,16.10
2017-12-11T08:38:30.762Z,17.60
2017-12-11T08:39:30.745Z,16.00
2017-12-11T08:40:30.740Z,16.40
2017-12-11T08:41:30.732Z,15.30
2017-12-11T08:42:30.710Z,15.30
2017-12-11T08:43:30.697Z,15.20
2017-12-11T08:44:30.687Z,14.80
2017-12-11T08:45:30.679Z,15.40
2017-12-11T08:46:30.665Z,13.90
2017-12-11T08:47:30.649Z,14.70
2017-12-11T08:48:30.639Z,14.80
2017-12-11T08:49:30.630Z,15.40
2017-12-11T08:50:30.615Z,16.30
2017-12-11T08:51:30.603Z,17.40
2017-12-11T08:52:30.592Z,16.50
2017-12-11T08:53:30.579Z,15.80
2017-12-11T08:54:30.576Z,16.30
2017-12-11T08:55:30.554Z,16.00
2017-12-11T08:56:30.542Z,14.60
2017-12-11T08:57:30.533Z,14.30
2017-12-11T08:58:30.520Z,15.20
2017-12-11T08:59:30.508Z,16.20
2017-12-11T09:00:30.501Z,14.40
2017-12-11T09:01:30.489Z,15.30
2017-12-11T09:02:30.473Z,16.00
2017-12-11T09:03:30.461Z,16.20
2017-12-11T09:04:30.448Z,16.10
2017-12-11T09:05:30.445Z,14.90
2017-12-11T09:06:30.427Z,14.80
2017-12-11T09:07:30.419Z,14.70
2017-12-11T09:08:30.402Z,15.30
2017-12-11T09:09:30.391Z,13.50
2017-12-11T09:10:30.386Z,14.00
2017-12-11T09:11:30.368Z,15.00
2017-12-11T09:12:30.356Z,15.30
2017-12-11T09:13:30.347Z,13.90
2017-12-11T09:14:30.338Z,12.70
2017-12-11T09:15:30.326Z,12.80
2017-12-11T09:16:30.310Z,13.60
2017-12-11T09:17:30.297Z,14.60
2017-12-11T09:18:30.287Z,15.30
2017-12-11T09:19:30.274Z,14.90
2017-12-11T09:20:30.262Z,14.30
2017-12-11T09:21:30.251Z,14.00
2017-12-11T09:22:30.238Z,13.80
2017-12-11T09:23:30.227Z,13.10
2017-12-11T09:24:30.214Z,13.80
2017-12-11T09:25:30.209Z,14.20
2017-12-11T09:26:30.195Z,13.30
2017-12-11T09:27:30.180Z,11.90
2017-12-11T09:28:30.176Z,10.70
2017-12-11T09:29:30.163Z,10.30
2017-12-11T09:30:30.144Z,8.90
2017-12-11T09:31:30.134Z,9.70
2017-12-11T09:32:30.124Z,9.90
2017-12-11T09:33:30.114Z,10.20
2017-12-11T09:34:30.097Z,9.30
2017-12-11T09:35:30.086Z,9.20
2017-12-11T09:36:30.075Z,8.90
2017-12-11T09:37:30.065Z,8.30
2017-12-11T09:38:30.093Z,9.60
2017-12-11T09:39:30.046Z,10.00
2017-12-11T09:40:30.028Z,10.00
2017-12-11T09:41:30.023Z,11.70
2017-12-11T09:42:30.007Z,12.20
2017-12-11T09:43:29.993Z,12.00
2017-12-11T09:44:29.981Z,10.80
2017-12-11T09:45:29.979Z,11.20
2017-12-11T09:46:29.956Z,10.60
2017-12-11T09:47:29.951Z,10.90
2017-12-11T09:48:29.934Z,10.60
2017-12-11T09:49:29.925Z,10.70
2017-12-11T09:50:29.913Z,12.10
2017-12-11T09:51:29.905Z,12.20
2017-12-11T09:52:29.888Z,12.70
2017-12-11T09:53:29.876Z,12.00
2017-12-11T09:54:29.863Z,12.40
2017-12-11T09:55:29.850Z,14.40
2017-12-11T09:56:29.851Z,15.00
2017-12-11T09:57:29.827Z,13.70
2017-12-11T09:58:29.822Z,13.60
2017-12-11T09:59:29.818Z,13.30
2017-12-11T10:00:29.793Z,13.00
2017-12-11T10:01:29.778Z,12.00
2017-12-11T10:02:29.766Z,12.60
2017-12-11T10:03:29.754Z,12.80
2017-12-11T10:04:29.743Z,12.10
2017-12-11T10:05:29.731Z,13.50
2017-12-11T10:06:29.719Z,13.40
2017-12-11T10:07:29.707Z,13.90
2017-12-11T10:08:29.696Z,12.40
2017-12-11T10:09:29.682Z,11.10
2017-12-11T10:10:29.684Z,10.80
2017-12-11T10:11:29.661Z,10.20
2017-12-11T10:12:29.646Z,10.90
2017-12-11T10:13:29.640Z,10.70
2017-12-11T10:14:29.623Z,11.30
2017-12-11T10:15:29.614Z,11.70
2017-12-11T10:16:29.600Z,13.10
2017-12-11T10:17:29.588Z,13.40
2017-12-11T10:18:29.574Z,12.60
2017-12-11T10:19:29.563Z,12.20
2017-12-11T10:20:29.551Z,12.30
2017-12-11T10:21:29.548Z,13.40
2017-12-11T10:22:29.528Z,11.90
2017-12-11T10:23:29.518Z,12.20
2017-12-11T10:24:29.508Z,11.40
2017-12-11T10:25:29.493Z,12.30
2017-12-11T10:26:29.479Z,11.40
2017-12-11T10:27:29.469Z,10.80
2017-12-11T10:28:29.462Z,10.90
2017-12-11T10:29:29.455Z,9.70
2017-12-11T10:30:29.435Z,9.40
2017-12-11T10:31:29.423Z,10.10
2017-12-11T10:32:29.419Z,10.20
2017-12-11T10:33:29.408Z,10.90
2017-12-11T10:34:29.388Z,11.10
2017-12-11T10:35:29.383Z,11.20
2017-12-11T10:36:29.367Z,20.10
2017-12-11T10:37:29.358Z,15.60
2017-12-11T10:38:29.351Z,12.30
2017-12-11T10:39:29.332Z,13.20
2017-12-11T10:40:29.329Z,15.70
2017-12-11T10:41:29.309Z,16.50
2017-12-11T10:42:29.302Z,14.70
2017-12-11T10:43:29.287Z,12.80
2017-12-11T10:44:29.277Z,12.10
2017-12-11T10:45:29.264Z,12.60
2017-12-11T10:46:29.253Z,11.50
2017-12-11T10:47:29.241Z,13.10
2017-12-11T10:48:29.229Z,12.40
2017-12-11T10:49:29.219Z,12.80
2017-12-11T10:50:29.206Z,12.80
2017-12-11T10:51:29.195Z,11.80
2017-12-11T10:52:29.183Z,12.20
2017-12-11T10:53:29.179Z,12.40
2017-12-11T10:54:29.165Z,13.40
2017-12-11T10:55:29.150Z,12.00
2017-12-11T10:56:29.138Z,13.20
2017-12-11T10:57:29.126Z,12.70
2017-12-11T10:58:29.115Z,12.20
2017-12-11T10:59:29.107Z,12.20
2017-12-11T11:00:29.096Z,12.80
2017-12-11T11:01:29.087Z,13.40
2017-12-11T11:02:29.067Z,13.60
2017-12-11T11:03:29.055Z,14.20
2017-12-11T11:04:29.051Z,14.10
2017-12-11T11:05:29.035Z,14.00
2017-12-11T11:06:29.023Z,13.50
2017-12-11T11:07:29.017Z,13.10
2017-12-11T11:08:29.005Z,13.90
2017-12-11T11:09:28.996Z,13.80
2017-12-11T11:10:28.976Z,14.40
2017-12-11T11:11:28.964Z,14.00
2017-12-11T11:12:28.954Z,14.90
2017-12-11T11:13:28.952Z,16.30
2017-12-11T11:14:28.935Z,14.90
2017-12-11T11:15:28.918Z,14.00
2017-12-11T11:16:28.906Z,13.20
2017-12-11T11:17:28.901Z,13.70
2017-12-11T11:18:28.885Z,13.90
2017-12-11T11:19:28.880Z,13.40
2017-12-11T11:20:28.863Z,12.80
2017-12-11T11:21:28.852Z,12.50
2017-12-11T11:22:28.838Z,12.80
2017-12-11T11:23:28.834Z,15.60
2017-12-11T11:24:28.815Z,15.20
2017-12-11T11:25:28.805Z,16.00
2017-12-11T11:26:28.793Z,14.50
2017-12-11T11:27:28.785Z,15.10
2017-12-11T11:28:28.771Z,14.30
2017-12-11T11:29:28.761Z,14.30
2017-12-11T11:30:28.747Z,15.90
2017-12-11T11:31:28.739Z,15.90
2017-12-11T11:32:28.730Z,15.50
2017-12-11T11:33:28.713Z,16.10
2017-12-11T11:34:28.701Z,15.90
2017-12-11T11:35:28.697Z,16.90
2017-12-11T11:36:28.680Z,15.20
2017-12-11T11:37:28.669Z,15.30
2017-12-11T11:38:28.658Z,14.50
2017-12-11T11:39:28.653Z,14.70
2017-12-11T11:40:28.636Z,14.00
2017-12-11T11:41:28.629Z,13.10
2017-12-11T11:42:28.617Z,12.60
2017-12-11T11:43:28.600Z,13.50
2017-12-11T11:44:28.590Z,13.50
2017-12-11T11:45:28.580Z,15.30
2017-12-11T11:46:28.567Z,13.60
2017-12-11T11:47:28.557Z,13.70
2017-12-11T11:48:28.548Z,13.80
2017-12-11T11:49:28.533Z,12.80
2017-12-11T11:50:28.527Z,13.80
2017-12-11T11:51:28.518Z,13.80
2017-12-11T11:52:28.505Z,13.80
2017-12-11T11:53:28.489Z,12.90
2017-12-11T11:54:28.480Z,12.80
2017-12-11T11:55:28.466Z,13.10
2017-12-11T11:56:28.456Z,12.80
2017-12-11T11:57:28.446Z,12.80
2017-12-11T11:58:28.441Z,13.90
2017-12-11T11:59:28.428Z,14.00
2017-12-11T12:00:28.417Z,14.10
2017-12-11T12:01:28.400Z,14.70
2017-12-11T12:02:28.395Z,14.60
2017-12-11T12:03:28.384Z,14.30
2017-12-11T12:04:28.368Z,14.70
2017-12-11T12:05:28.358Z,14.30
2017-12-11T12:06:28.346Z,13.90
2017-12-11T12:07:28.340Z,15.10
2017-12-11T12:08:28.326Z,14.00
2017-12-11T12:09:28.316Z,13.70
2017-12-11T12:10:28.303Z,13.40
2017-12-11T12:11:28.291Z,12.30
2017-12-11T12:12:28.282Z,13.60
2017-12-11T12:13:28.271Z,14.10
2017-12-11T12:14:28.265Z,14.20
2017-12-11T12:15:28.248Z,14.10
2017-12-11T12:16:28.244Z,14.70
2017-12-11T12:17:28.230Z,16.00
2017-12-11T12:18:28.217Z,14.60
2017-12-11T12:19:28.205Z,14.20
2017-12-11T12:20:28.196Z,13.40
2017-12-11T12:21:28.184Z,14.50
2017-12-11T12:22:28.174Z,14.30
2017-12-11T12:23:28.169Z,16.40
2017-12-11T12:24:28.155Z,16.10
2017-12-11T12:25:28.147Z,14.90
2017-12-11T12:26:28.130Z,15.50
2017-12-11T12:27:28.121Z,14.90
2017-12-11T12:28:28.110Z,15.40
2017-12-11T12:29:28.099Z,14.90
2017-12-11T12:30:28.088Z,14.30
2017-12-11T12:31:28.078Z,14.70
2017-12-11T12:32:28.067Z,15.30
2017-12-11T12:33:28.057Z,13.70
2017-12-11T12:34:28.044Z,13.00
2017-12-11T12:35:28.034Z,14.60
2017-12-11T12:36:28.025Z,14.10
2017-12-11T12:37:28.014Z,13.80
2017-12-11T12:38:28.004Z,14.70
2017-12-11T12:39:27.998Z,13.80
2017-12-11T12:40:27.982Z,13.10
2017-12-11T12:41:27.978Z,13.50
2017-12-11T12:42:27.960Z,14.00
2017-12-11T12:43:27.949Z,13.70
2017-12-11T12:44:27.944Z,14.90
2017-12-11T12:45:27.930Z,15.00
2017-12-11T12:46:27.918Z,13.40
2017-12-11T12:47:27.907Z,14.60
2017-12-11T12:48:27.899Z,13.50
2017-12-11T12:49:27.898Z,14.00
2017-12-11T12:50:27.875Z,14.20
2017-12-11T12:51:27.867Z,14.70
2017-12-11T12:52:27.855Z,14.10
2017-12-11T12:53:27.845Z,13.40
2017-12-11T12:54:27.838Z,12.60
2017-12-11T12:55:27.825Z,13.80
2017-12-11T12:56:27.818Z,13.00
2017-12-11T12:57:27.809Z,12.90
2017-12-11T12:58:27.793Z,13.40